createdAt,value
2023-01-19T00:00:58.942Z,10.63
2023-01-19T00:03:26.562Z,10.23
2023-01-19T00:05:54.358Z,11.47
2023-01-19T00:08:21.584Z,11.10
2023-01-19T00:10:53.553Z,11.60
2023-01-19T00:13:20.910Z,8.30
2023-01-19T00:15:48.227Z,10.13
2023-01-19T00:18:15.500Z,7.37
2023-01-19T00:20:44.833Z,11.13
2023-01-19T00:23:12.444Z,7.57
2023-01-19T00:25:42.552Z,7.77
2023-01-19T00:28:14.917Z,8.40
2023-01-19T00:30:43.134Z,8.40
2023-01-19T00:33:13.591Z,10.93
2023-01-19T00:35:42.672Z,9.30
2023-01-19T00:38:11.699Z,6.77
2023-01-19T00:40:38.983Z,7.87
2023-01-19T00:43:06.164Z,10.17
2023-01-19T00:45:33.686Z,8.83
2023-01-19T00:48:01.133Z,9.17
2023-01-19T00:50:30.407Z,12.13
2023-01-19T00:53:01.028Z,7.40
2023-01-19T00:55:30.091Z,6.80
2023-01-19T00:57:57.872Z,8.27
2023-01-19T01:00:25.742Z,6.97
2023-01-19T01:02:53.641Z,6.43
2023-01-19T01:05:22.482Z,9.00
2023-01-19T01:07:50.750Z,5.90
2023-01-19T01:10:23.880Z,7.60
2023-01-19T01:12:56.664Z,6.97
2023-01-19T01:15:27.736Z,6.37
2023-01-19T01:17:55.653Z,6.40
2023-01-19T01:20:27.834Z,5.97
2023-01-19T01:22:56.385Z,6.50
2023-01-19T01:25:25.171Z,6.57
2023-01-19T01:27:53.142Z,6.03
2023-01-19T01:30:21.239Z,4.30
2023-01-19T01:32:49.039Z,6.03
2023-01-19T01:35:16.854Z,7.80
2023-01-19T01:37:44.461Z,6.73
2023-01-19T01:40:16.663Z,6.17
2023-01-19T01:42:44.131Z,6.87
2023-01-19T01:45:24.856Z,6.87
2023-01-19T01:47:52.875Z,6.40
2023-01-19T01:50:26.325Z,4.90
2023-01-19T01:53:06.311Z,3.87
2023-01-19T01:55:48.238Z,4.50
2023-01-19T01:58:16.732Z,5.10
2023-01-19T02:01:02.965Z,7.57
2023-01-19T02:03:32.412Z,4.77
2023-01-19T02:06:03.079Z,4.03
2023-01-19T02:09:04.473Z,8.80
2023-01-19T02:11:51.360Z,5.50
2023-01-19T02:14:21.336Z,6.07
2023-01-19T02:16:48.956Z,4.70
2023-01-19T02:19:40.746Z,4.73
2023-01-19T02:22:35.935Z,5.33
2023-01-19T02:25:07.124Z,7.70
2023-01-19T02:27:34.548Z,6.17
2023-01-19T02:30:03.718Z,5.00
2023-01-19T02:32:31.051Z,5.80
2023-01-19T02:34:58.580Z,4.13
2023-01-19T02:37:27.898Z,5.83
2023-01-19T02:39:58.878Z,5.00
2023-01-19T02:42:34.915Z,6.57
2023-01-19T02:45:06.860Z,5.30
2023-01-19T02:47:39.873Z,5.47
2023-01-19T02:50:49.808Z,4.33
2023-01-19T02:53:19.816Z,7.73
2023-01-19T02:56:12.191Z,6.63
2023-01-19T02:58:51.257Z,5.87
2023-01-19T03:01:28.121Z,7.30
2023-01-19T03:04:26.629Z,6.63
2023-01-19T03:07:08.199Z,7.47
2023-01-19T03:09:43.345Z,5.30
2023-01-19T03:12:50.574Z,8.13
2023-01-19T03:15:31.347Z,6.53
2023-01-19T03:18:00.771Z,5.40
2023-01-19T03:20:29.015Z,7.97
2023-01-19T03:23:02.117Z,5.90
2023-01-19T03:25:33.266Z,6.73
2023-01-19T03:28:01.997Z,4.93
2023-01-19T03:30:35.434Z,8.03
2023-01-19T03:33:13.169Z,6.60
2023-01-19T03:35:45.229Z,7.23
2023-01-19T03:38:16.625Z,5.67
2023-01-19T03:40:45.268Z,7.00
2023-01-19T03:43:15.795Z,8.30
2023-01-19T03:45:44.051Z,7.77
2023-01-19T03:48:12.457Z,5.93
2023-01-19T03:50:39.766Z,6.87
2023-01-19T03:53:11.035Z,8.43
2023-01-19T03:55:41.124Z,6.87
2023-01-19T03:58:08.493Z,8.77
2023-01-19T04:00:36.541Z,6.07
2023-01-19T04:03:05.374Z,6.67
2023-01-19T04:05:33.314Z,6.10
2023-01-19T04:08:00.714Z,9.37
2023-01-19T04:10:28.005Z,7.53
2023-01-19T04:13:00.081Z,6.50
2023-01-19T04:15:28.955Z,7.37
2023-01-19T04:18:00.641Z,5.80
2023-01-19T04:20:29.062Z,9.33
2023-01-19T04:23:00.679Z,7.17
2023-01-19T04:25:28.846Z,5.30
2023-01-19T04:27:58.275Z,7.80
2023-01-19T04:30:26.379Z,7.50
2023-01-19T04:32:55.390Z,7.53
2023-01-19T04:35:22.920Z,8.80
2023-01-19T04:37:50.095Z,10.23
2023-01-19T04:40:17.480Z,5.17
2023-01-19T04:42:45.652Z,6.73
2023-01-19T04:45:13.983Z,4.40
2023-01-19T04:47:42.762Z,4.50
2023-01-19T04:50:11.564Z,5.33
2023-01-19T04:52:38.890Z,6.67
2023-01-19T04:55:07.409Z,5.73
2023-01-19T04:57:35.029Z,4.23
2023-01-19T05:00:02.906Z,5.37
2023-01-19T05:02:30.344Z,7.80
2023-01-19T05:04:57.692Z,3.47
2023-01-19T05:07:24.994Z,3.67
2023-01-19T05:09:52.559Z,4.53
2023-01-19T05:12:20.577Z,6.40
2023-01-19T05:14:47.804Z,6.87
2023-01-19T05:17:14.985Z,6.50
2023-01-19T05:19:42.224Z,5.27
2023-01-19T05:22:09.617Z,4.50
2023-01-19T05:24:36.892Z,6.30
2023-01-19T05:27:04.294Z,3.67
2023-01-19T05:29:31.501Z,4.40
2023-01-19T05:31:58.812Z,6.90
2023-01-19T05:34:26.089Z,6.40
2023-01-19T05:36:53.586Z,4.97
2023-01-19T05:39:21.037Z,8.30
2023-01-19T05:41:48.224Z,6.97
2023-01-19T05:44:15.475Z,7.00
2023-01-19T05:46:42.796Z,8.33
2023-01-19T05:49:11.413Z,6.10
2023-01-19T05:51:38.963Z,6.83
2023-01-19T05:54:07.214Z,7.17
2023-01-19T05:56:35.542Z,10.57
2023-01-19T05:59:02.990Z,9.47
2023-01-19T06:01:30.156Z,6.03
2023-01-19T06:03:57.419Z,9.37
2023-01-19T06:06:24.653Z,7.23
2023-01-19T06:08:51.943Z,16.30
2023-01-19T06:11:19.566Z,9.60
2023-01-19T06:13:47.465Z,15.03
2023-01-19T06:16:14.821Z,9.30
2023-01-19T06:18:43.645Z,9.47
2023-01-19T06:21:12.436Z,9.57
2023-01-19T06:23:39.648Z,12.77
2023-01-19T06:26:06.829Z,13.93
2023-01-19T06:28:34.063Z,14.00
2023-01-19T06:31:01.780Z,11.90
2023-01-19T06:33:29.176Z,14.13
2023-01-19T06:35:56.637Z,11.97
2023-01-19T06:38:24.028Z,12.10
2023-01-19T06:40:58.462Z,9.57
2023-01-19T06:43:26.274Z,9.87
2023-01-19T06:45:53.579Z,12.83
2023-01-19T06:48:21.557Z,10.33
2023-01-19T06:50:49.379Z,8.27
2023-01-19T06:53:17.356Z,11.17
2023-01-19T06:55:44.944Z,11.30
2023-01-19T06:58:12.561Z,10.30
2023-01-19T07:00:39.827Z,9.50
2023-01-19T07:03:08.266Z,9.63
2023-01-19T07:05:36.285Z,9.67
2023-01-19T07:08:03.974Z,10.73
2023-01-19T07:11:22.089Z,9.93
2023-01-19T07:13:18.900Z,10.27
2023-01-19T07:15:46.223Z,13.27
2023-01-19T07:18:13.479Z,13.77
2023-01-19T07:20:40.780Z,12.50
2023-01-19T07:23:08.140Z,10.90
2023-01-19T07:25:35.394Z,12.13
2023-01-19T07:28:04.436Z,10.90
2023-01-19T07:30:31.736Z,12.77
2023-01-19T07:32:59.322Z,13.57
2023-01-19T07:35:27.063Z,14.70
2023-01-19T07:37:54.415Z,12.10
2023-01-19T07:40:23.941Z,12.73
2023-01-19T07:42:52.028Z,14.90
2023-01-19T07:45:20.846Z,11.67
2023-01-19T07:47:49.847Z,13.53
2023-01-19T07:50:21.130Z,11.73
2023-01-19T07:52:53.339Z,16.27
2023-01-19T07:55:21.202Z,10.27
2023-01-19T07:57:51.083Z,11.30
2023-01-19T08:00:21.903Z,12.07
2023-01-19T08:02:51.241Z,11.80
2023-01-19T08:05:19.824Z,14.90
2023-01-19T08:07:48.407Z,20.63
2023-01-19T08:10:16.829Z,13.87
2023-01-19T08:12:46.853Z,13.97
2023-01-19T08:15:14.579Z,15.13
2023-01-19T08:17:41.846Z,13.53
2023-01-19T08:20:09.762Z,13.13
2023-01-19T08:22:40.164Z,12.33
2023-01-19T08:25:07.851Z,15.23
2023-01-19T08:27:35.221Z,13.87
2023-01-19T08:30:02.717Z,14.53
2023-01-19T08:32:30.107Z,15.53
2023-01-19T08:34:57.493Z,14.17
2023-01-19T08:37:24.804Z,13.93
2023-01-19T08:39:53.665Z,17.70
2023-01-19T08:42:21.057Z,15.97
2023-01-19T08:44:57.546Z,19.90
2023-01-19T08:47:25.382Z,14.60
2023-01-19T08:49:52.715Z,16.50
2023-01-19T08:52:20.089Z,19.33
2023-01-19T08:54:47.506Z,16.63
2023-01-19T08:57:15.362Z,14.83
2023-01-19T08:59:42.690Z,13.73
2023-01-19T09:02:11.142Z,14.13
2023-01-19T09:04:38.559Z,12.43
2023-01-19T09:09:40.081Z,14.03
2023-01-19T09:12:07.488Z,17.73
2023-01-19T09:14:34.858Z,16.67
2023-01-19T09:17:02.482Z,15.33
2023-01-19T09:19:30.091Z,18.80
2023-01-19T09:21:59.167Z,16.37
2023-01-19T09:24:26.653Z,18.93
2023-01-19T09:26:53.901Z,16.33
2023-01-19T09:29:21.306Z,17.13
2023-01-19T09:31:48.972Z,20.27
2023-01-19T09:34:16.315Z,17.37
2023-01-19T09:36:43.554Z,16.93
2023-01-19T09:39:11.070Z,18.43
2023-01-19T09:41:42.079Z,24.33
2023-01-19T09:44:17.178Z,17.10
2023-01-19T09:46:45.281Z,18.13
2023-01-19T09:50:11.679Z,19.23
2023-01-19T09:52:44.789Z,19.63
2023-01-19T09:55:22.612Z,19.37
2023-01-19T09:57:50.319Z,20.60
2023-01-19T10:00:18.608Z,19.20
2023-01-19T10:03:10.140Z,24.97
2023-01-19T10:05:50.643Z,20.53
2023-01-19T10:08:42.978Z,23.67
2023-01-19T10:11:22.838Z,22.03
2023-01-19T10:13:52.296Z,26.93
2023-01-19T10:16:31.697Z,29.87
2023-01-19T10:19:22.680Z,19.43
2023-01-19T10:21:51.485Z,21.93
2023-01-19T10:24:27.412Z,20.27
2023-01-19T10:26:56.453Z,23.87
2023-01-19T10:29:37.876Z,29.47
2023-01-19T10:32:09.758Z,27.90
2023-01-19T10:34:37.186Z,25.37
2023-01-19T10:37:15.856Z,21.80
2023-01-19T10:39:46.186Z,22.13
2023-01-19T10:42:16.984Z,21.77
2023-01-19T10:44:45.942Z,24.97
2023-01-19T10:47:22.906Z,22.23
2023-01-19T10:49:52.106Z,26.97
2023-01-19T10:52:31.337Z,19.43
2023-01-19T10:55:00.273Z,21.73
2023-01-19T10:57:34.553Z,20.13
2023-01-19T11:00:05.340Z,26.00
2023-01-19T11:02:33.294Z,24.73
2023-01-19T11:05:22.428Z,21.27
2023-01-19T11:07:49.925Z,20.90
2023-01-19T11:10:21.262Z,28.00
2023-01-19T11:13:02.665Z,26.67
2023-01-19T11:15:33.890Z,28.60
2023-01-19T11:18:03.837Z,22.13
2023-01-19T11:20:52.910Z,22.40
2023-01-19T11:23:29.900Z,28.73
2023-01-19T11:26:02.609Z,22.80
2023-01-19T11:28:37.304Z,22.27
2023-01-19T11:31:10.808Z,23.93
2023-01-19T11:33:50.971Z,24.10
2023-01-19T11:36:27.096Z,21.00
2023-01-19T11:39:01.175Z,22.40
2023-01-19T11:41:29.798Z,25.70
2023-01-19T11:44:02.084Z,21.70
2023-01-19T11:46:34.288Z,23.20
2023-01-19T11:49:22.079Z,20.80
2023-01-19T11:52:16.662Z,23.47
2023-01-19T11:54:59.508Z,20.93
2023-01-19T11:57:29.301Z,25.47
2023-01-19T11:59:58.674Z,26.97
2023-01-19T12:02:40.970Z,22.80
2023-01-19T12:05:14.976Z,23.20
2023-01-19T12:07:45.407Z,17.73
2023-01-19T12:10:23.880Z,20.70
2023-01-19T12:12:52.690Z,22.73
2023-01-19T12:15:38.606Z,22.37
2023-01-19T12:18:10.577Z,21.07
2023-01-19T12:20:44.404Z,24.70
2023-01-19T12:23:11.857Z,20.27
2023-01-19T12:25:54.849Z,22.07
2023-01-19T12:28:32.476Z,31.87
2023-01-19T12:31:01.678Z,24.67
2023-01-19T12:33:34.919Z,30.27
2023-01-19T12:36:05.055Z,22.83
2023-01-19T12:38:53.456Z,19.07
2023-01-19T12:41:30.870Z,15.53
2023-01-19T12:44:20.029Z,21.57
2023-01-19T12:46:55.051Z,23.00
2023-01-19T12:49:40.356Z,22.47
2023-01-19T12:52:22.527Z,22.87
2023-01-19T12:55:15.771Z,18.90
2023-01-19T12:57:58.282Z,18.87
2023-01-19T13:00:25.473Z,20.13
2023-01-19T13:02:53.230Z,19.93
2023-01-19T13:05:38.877Z,18.73
2023-01-19T13:08:06.387Z,20.03
2023-01-19T13:10:53.174Z,18.67
2023-01-19T13:13:23.302Z,25.13
2023-01-19T13:15:51.162Z,24.83
2023-01-19T13:18:28.293Z,20.07
2023-01-19T13:21:04.024Z,20.07
2023-01-19T13:23:52.321Z,18.10
2023-01-19T13:26:25.535Z,19.67
2023-01-19T13:28:58.523Z,19.87
2023-01-19T13:31:26.536Z,22.17
2023-01-19T13:33:59.888Z,23.43
2023-01-19T13:36:29.175Z,25.30
2023-01-19T13:39:00.298Z,20.07
2023-01-19T13:41:31.207Z,21.03
2023-01-19T13:44:26.657Z,20.23
2023-01-19T13:46:56.324Z,23.10
2023-01-19T13:49:33.263Z,16.90
2023-01-19T13:52:29.881Z,18.33
2023-01-19T13:55:02.499Z,17.87
2023-01-19T13:57:31.724Z,17.10
2023-01-19T14:00:05.614Z,18.77
2023-01-19T14:02:42.292Z,20.20
2023-01-19T14:05:23.486Z,18.17
2023-01-19T14:08:13.310Z,19.30
2023-01-19T14:11:02.299Z,18.77
2023-01-19T14:13:40.093Z,18.27
2023-01-19T14:16:12.427Z,21.50
2023-01-19T14:18:39.916Z,17.43
2023-01-19T14:21:13.216Z,23.73
2023-01-19T14:23:53.026Z,19.40
2023-01-19T14:26:53.734Z,16.87
2023-01-19T14:29:28.966Z,15.80
2023-01-19T14:32:15.354Z,15.53
2023-01-19T14:34:50.194Z,16.87
2023-01-19T14:37:22.257Z,17.20
2023-01-19T14:40:07.909Z,14.27
2023-01-19T14:42:39.355Z,14.07
2023-01-19T14:45:16.507Z,16.77
2023-01-19T14:47:46.052Z,13.93
2023-01-19T14:50:34.075Z,15.70
2023-01-19T14:53:03.300Z,16.80
2023-01-19T14:55:38.018Z,13.70
2023-01-19T14:58:13.359Z,16.70
2023-01-19T15:00:41.992Z,19.00
2023-01-19T15:03:10.300Z,19.07
2023-01-19T15:05:43.914Z,16.73
2023-01-19T15:08:34.638Z,16.63
2023-01-19T15:11:11.958Z,18.10
2023-01-19T15:13:43.662Z,19.33
2023-01-19T15:16:11.296Z,13.67
2023-01-19T15:18:38.962Z,21.10
2023-01-19T15:21:06.558Z,14.40
2023-01-19T15:23:33.881Z,12.90
2023-01-19T15:26:03.856Z,15.67
2023-01-19T15:28:31.803Z,13.27
2023-01-19T15:31:00.122Z,14.43
2023-01-19T15:33:32.865Z,14.97
2023-01-19T15:36:00.181Z,12.00
2023-01-19T15:38:28.504Z,12.63
2023-01-19T15:40:55.765Z,16.93
2023-01-19T15:43:23.076Z,15.70
2023-01-19T15:45:57.403Z,15.27
2023-01-19T15:48:25.688Z,16.43
2023-01-19T15:50:53.033Z,17.97
2023-01-19T15:53:23.850Z,14.73
2023-01-19T15:55:53.107Z,11.10
2023-01-19T15:58:20.833Z,13.60
2023-01-19T16:00:57.177Z,11.53
2023-01-19T16:03:26.331Z,12.27
2023-01-19T16:05:53.806Z,14.03
2023-01-19T16:08:21.956Z,17.23
2023-01-19T16:10:49.237Z,16.13
2023-01-19T16:13:16.527Z,15.50
2023-01-19T16:15:43.905Z,12.03
2023-01-19T16:18:11.248Z,13.00
2023-01-19T16:20:38.854Z,13.67
2023-01-19T16:23:21.370Z,10.40
2023-01-19T16:25:57.192Z,7.97
2023-01-19T16:28:25.681Z,10.30
2023-01-19T16:30:53.414Z,11.70
2023-01-19T16:33:20.797Z,11.17
2023-01-19T16:35:48.155Z,13.03
2023-01-19T16:38:15.633Z,17.73
2023-01-19T16:40:46.964Z,10.50
2023-01-19T16:43:15.220Z,16.03
2023-01-19T16:46:00.557Z,6.80
2023-01-19T16:48:28.868Z,10.53
2023-01-19T16:51:06.636Z,10.20
2023-01-19T16:53:35.243Z,8.93
2023-01-19T16:56:10.793Z,11.03
2023-01-19T16:58:38.458Z,12.83
2023-01-19T17:01:15.101Z,10.80
2023-01-19T17:03:43.144Z,7.80
2023-01-19T17:06:12.381Z,12.23
2023-01-19T17:08:39.934Z,9.23
2023-01-19T17:11:22.548Z,7.20
2023-01-19T17:13:55.333Z,8.73
2023-01-19T17:16:24.442Z,7.13
2023-01-19T17:18:51.997Z,12.10
2023-01-19T17:21:20.064Z,8.27
2023-01-19T17:23:49.577Z,8.63
2023-01-19T17:26:17.649Z,6.47
2023-01-19T17:28:45.134Z,7.17
2023-01-19T17:31:15.005Z,10.77
2023-01-19T17:33:47.692Z,8.17
2023-01-19T17:36:21.090Z,6.47
2023-01-19T17:38:52.928Z,8.07
2023-01-19T17:41:23.208Z,10.40
2023-01-19T17:43:51.762Z,8.30
2023-01-19T17:46:21.119Z,7.60
2023-01-19T17:48:56.855Z,14.03
2023-01-19T17:51:25.272Z,11.03
2023-01-19T17:53:53.862Z,11.80
2023-01-19T17:56:27.394Z,7.43
2023-01-19T17:58:55.782Z,6.37
2023-01-19T18:01:28.527Z,7.57
2023-01-19T18:03:56.181Z,12.03
2023-01-19T18:06:23.848Z,10.63
2023-01-19T18:08:51.293Z,11.37
2023-01-19T18:11:20.499Z,14.33
2023-01-19T18:13:49.848Z,13.97
2023-01-19T18:16:21.332Z,13.30
2023-01-19T18:18:49.843Z,13.37
2023-01-19T18:21:17.958Z,8.40
2023-01-19T18:23:46.006Z,15.43
2023-01-19T18:26:19.121Z,13.80
2023-01-19T18:28:47.364Z,8.70
2023-01-19T18:31:17.613Z,8.70
2023-01-19T18:33:45.480Z,8.40
2023-01-19T18:36:13.363Z,11.80
2023-01-19T18:38:41.264Z,12.83
2023-01-19T18:41:14.724Z,10.97
2023-01-19T18:43:42.565Z,11.00
2023-01-19T18:46:10.485Z,10.50
2023-01-19T18:48:38.802Z,15.33
2023-01-19T18:51:11.935Z,10.67
2023-01-19T18:53:39.736Z,14.97
2023-01-19T18:56:07.855Z,6.97
2023-01-19T18:58:37.561Z,11.50
2023-01-19T19:01:16.260Z,6.83
2023-01-19T19:03:43.771Z,10.93
2023-01-19T19:06:11.629Z,10.47
2023-01-19T19:08:39.876Z,6.70
2023-01-19T19:11:08.725Z,11.90
2023-01-19T19:13:36.583Z,12.33
2023-01-19T19:16:09.335Z,12.13
2023-01-19T19:18:37.924Z,10.60
2023-01-19T19:21:10.100Z,11.77
2023-01-19T19:23:38.376Z,9.43
2023-01-19T19:26:08.095Z,11.07
2023-01-19T19:28:36.789Z,12.97
2023-01-19T19:31:20.299Z,10.23
2023-01-19T19:33:48.938Z,14.50
2023-01-19T19:36:16.361Z,12.13
2023-01-19T19:38:44.806Z,11.67
2023-01-19T19:41:14.202Z,9.50
2023-01-19T19:43:41.555Z,7.93
2023-01-19T19:46:12.164Z,13.70
2023-01-19T19:48:39.943Z,14.53
2023-01-19T19:51:18.398Z,12.77
2023-01-19T19:53:47.471Z,13.40
2023-01-19T19:56:16.012Z,10.73
2023-01-19T19:58:43.318Z,11.13
2023-01-19T20:01:13.188Z,10.17
2023-01-19T20:03:40.932Z,10.57
2023-01-19T20:06:11.054Z,24.37
2023-01-19T20:08:38.608Z,15.83
2023-01-19T20:11:17.172Z,9.83
2023-01-19T20:13:45.126Z,14.33
2023-01-19T20:16:15.343Z,12.63
2023-01-19T20:18:44.569Z,13.97
2023-01-19T20:21:12.818Z,12.73
2023-01-19T20:23:41.102Z,14.00
2023-01-19T20:26:12.638Z,10.30
2023-01-19T20:28:40.145Z,11.80
2023-01-19T20:31:19.073Z,9.30
2023-01-19T20:33:48.038Z,8.73
2023-01-19T20:36:16.097Z,8.47
2023-01-19T20:38:44.008Z,10.43
2023-01-19T20:41:12.712Z,11.50
2023-01-19T20:43:40.695Z,10.07
2023-01-19T20:46:08.460Z,10.00
2023-01-19T20:48:35.888Z,7.07
2023-01-19T20:51:12.887Z,7.63
2023-01-19T20:53:41.267Z,8.70
2023-01-19T20:56:12.129Z,10.17
2023-01-19T20:58:40.414Z,6.63
2023-01-19T21:01:28.708Z,6.87
2023-01-19T21:03:56.091Z,9.30
2023-01-19T21:06:23.638Z,8.67
2023-01-19T21:08:51.302Z,6.70
2023-01-19T21:11:20.867Z,10.87
2023-01-19T21:13:51.392Z,7.30
2023-01-19T21:16:18.706Z,7.43
2023-01-19T21:18:46.314Z,10.13
2023-01-19T21:21:28.926Z,8.63
2023-01-19T21:23:57.759Z,9.57
2023-01-19T21:26:25.220Z,13.50
2023-01-19T21:28:53.248Z,10.70
2023-01-19T21:31:22.761Z,9.90
2023-01-19T21:33:53.458Z,11.90
2023-01-19T21:36:22.477Z,9.73
2023-01-19T21:38:55.694Z,11.37
2023-01-19T21:41:23.229Z,10.50
2023-01-19T21:43:50.573Z,8.80
2023-01-19T21:46:29.133Z,10.73
2023-01-19T21:49:01.921Z,9.40
2023-01-19T21:51:35.466Z,7.87
2023-01-19T21:54:04.679Z,9.03
2023-01-19T21:56:32.519Z,10.87
2023-01-19T21:59:04.271Z,9.97
2023-01-19T22:01:32.945Z,10.30
2023-01-19T22:04:00.452Z,11.37
2023-01-19T22:06:28.414Z,8.90
2023-01-19T22:08:57.716Z,13.53
2023-01-19T22:11:25.685Z,11.20
2023-01-19T22:13:53.966Z,8.43
2023-01-19T22:16:22.710Z,10.70
2023-01-19T22:18:53.900Z,9.23
2023-01-19T22:21:23.639Z,10.93
2023-01-19T22:23:53.059Z,9.33
2023-01-19T22:26:20.767Z,13.17
2023-01-19T22:28:48.711Z,11.30
2023-01-19T22:31:18.378Z,13.77
2023-01-19T22:33:46.116Z,12.53
2023-01-19T22:36:23.714Z,17.70
2023-01-19T22:38:59.616Z,11.60
2023-01-19T22:41:30.114Z,9.77
2023-01-19T22:44:02.177Z,11.20
2023-01-19T22:46:32.444Z,11.20
2023-01-19T22:49:00.325Z,11.27
2023-01-19T22:51:29.424Z,9.90
2023-01-19T22:53:57.135Z,12.00
2023-01-19T22:56:26.469Z,10.83
2023-01-19T22:58:54.439Z,12.03
2023-01-19T23:01:23.243Z,15.23
2023-01-19T23:03:50.861Z,13.03
2023-01-19T23:06:21.056Z,12.67
2023-01-19T23:08:48.651Z,16.97
2023-01-19T23:11:21.842Z,13.20
2023-01-19T23:13:49.585Z,15.67
2023-01-19T23:16:17.354Z,11.20
2023-01-19T23:18:45.143Z,13.83
2023-01-19T23:21:15.064Z,12.20
2023-01-19T23:23:43.202Z,12.50
2023-01-19T23:26:16.838Z,15.87
2023-01-19T23:28:45.210Z,13.80
2023-01-19T23:31:24.315Z,16.53
2023-01-19T23:33:53.605Z,17.93
2023-01-19T23:36:22.187Z,16.87
2023-01-19T23:38:51.557Z,12.33
2023-01-19T23:41:20.064Z,14.83
2023-01-19T23:43:47.591Z,14.87
2023-01-19T23:46:16.277Z,12.23
2023-01-19T23:48:44.116Z,13.97
2023-01-19T23:51:14.855Z,19.63
2023-01-19T23:53:42.174Z,12.53
2023-01-19T23:56:15.816Z,17.30
2023-01-19T23:58:44.743Z,12.93
